createdAt,value
2018-07-01T00:01:27.535Z,19.20
2018-07-01T00:03:56.081Z,19.10
2018-07-01T00:06:24.664Z,19.00
2018-07-01T00:08:54.003Z,19.00
2018-07-01T00:11:22.588Z,19.00
2018-07-01T00:13:51.292Z,19.00
2018-07-01T00:16:19.804Z,18.90
2018-07-01T00:18:48.342Z,18.90
2018-07-01T00:21:16.927Z,18.90
2018-07-01T00:23:45.463Z,18.80
2018-07-01T00:26:14.027Z,18.70
2018-07-01T00:28:42.599Z,18.70
2018-07-01T00:31:11.126Z,18.70
2018-07-01T00:33:39.702Z,18.60
2018-07-01T00:36:08.263Z,18.50
2018-07-01T00:38:36.863Z,18.50
2018-07-01T00:41:05.399Z,18.50
2018-07-01T00:43:33.944Z,18.40
2018-07-01T00:46:02.504Z,18.40
2018-07-01T00:48:31.224Z,18.30
2018-07-01T00:50:59.739Z,18.30
2018-07-01T00:53:28.256Z,18.40
2018-07-01T00:55:56.790Z,18.30
2018-07-01T00:58:25.305Z,18.30
2018-07-01T01:00:54.626Z,18.20
2018-07-01T01:03:23.870Z,18.20
2018-07-01T01:05:52.374Z,18.20
2018-07-01T01:08:20.975Z,18.20
2018-07-01T01:10:49.606Z,18.10
2018-07-01T01:13:18.153Z,18.00
2018-07-01T01:15:46.729Z,18.00
2018-07-01T01:18:15.305Z,18.00
2018-07-01T01:20:43.849Z,18.00
2018-07-01T01:23:12.366Z,17.90
2018-07-01T01:25:40.987Z,17.80
2018-07-01T01:28:09.529Z,17.80
2018-07-01T01:30:38.091Z,17.80
2018-07-01T01:33:06.723Z,17.80
2018-07-01T01:35:35.284Z,17.70
2018-07-01T01:38:03.856Z,17.80
2018-07-01T01:40:37.292Z,17.70
2018-07-01T01:43:17.171Z,17.60
2018-07-01T01:45:55.862Z,17.60
2018-07-01T01:48:28.934Z,17.50
2018-07-01T01:51:02.690Z,17.50
2018-07-01T01:53:37.043Z,17.50
2018-07-01T01:56:13.282Z,17.40
2018-07-01T01:58:47.177Z,17.50
2018-07-01T02:01:54.313Z,17.40
2018-07-01T02:04:28.004Z,17.50
2018-07-01T02:06:59.482Z,17.40
2018-07-01T02:09:30.387Z,17.30
2018-07-01T02:12:00.256Z,17.30
2018-07-01T02:14:32.719Z,17.20
2018-07-01T02:17:03.748Z,17.20
2018-07-01T02:19:32.307Z,17.20
2018-07-01T02:22:02.335Z,17.10
2018-07-01T02:24:34.831Z,17.00
2018-07-01T02:27:03.419Z,17.10
2018-07-01T02:29:32.022Z,17.00
2018-07-01T02:32:00.595Z,17.00
2018-07-01T02:34:29.126Z,16.90
2018-07-01T02:36:57.654Z,16.90
2018-07-01T02:39:26.452Z,16.80
2018-07-01T02:42:01.430Z,16.80
2018-07-01T02:44:29.997Z,16.90
2018-07-01T02:46:58.555Z,16.80
2018-07-01T02:49:28.594Z,16.80
2018-07-01T02:51:57.189Z,16.80
2018-07-01T02:54:25.710Z,16.70
2018-07-01T02:56:54.291Z,16.70
2018-07-01T02:59:22.852Z,16.70
2018-07-01T03:01:51.414Z,16.70
2018-07-01T03:04:19.976Z,16.60
2018-07-01T03:06:48.565Z,16.50
2018-07-01T03:09:17.110Z,16.50
2018-07-01T03:11:45.657Z,16.50
2018-07-01T03:14:14.242Z,16.50
2018-07-01T03:16:42.762Z,16.40
2018-07-01T03:21:39.511Z,16.40
2018-07-01T03:24:08.120Z,16.40
2018-07-01T03:26:36.644Z,16.30
2018-07-01T03:29:05.443Z,16.30
2018-07-01T03:31:33.959Z,16.30
2018-07-01T03:34:02.499Z,16.20
2018-07-01T03:36:31.029Z,16.20
2018-07-01T03:38:59.822Z,16.30
2018-07-01T03:41:28.359Z,16.20
2018-07-01T03:43:56.853Z,16.20
2018-07-01T03:46:25.346Z,16.10
2018-07-01T03:48:53.895Z,16.10
2018-07-01T03:51:22.446Z,16.10
2018-07-01T03:53:50.993Z,16.00
2018-07-01T03:56:19.582Z,16.00
2018-07-01T03:58:48.316Z,16.00
2018-07-01T04:01:16.854Z,16.00
2018-07-01T04:03:45.399Z,16.00
2018-07-01T04:06:13.966Z,16.00
2018-07-01T04:08:42.547Z,15.90
2018-07-01T04:11:11.106Z,16.00
2018-07-01T04:13:39.693Z,16.00
2018-07-01T04:16:08.250Z,16.00
2018-07-01T04:18:36.830Z,16.00
2018-07-01T04:21:06.297Z,16.00
2018-07-01T04:23:34.823Z,16.10
2018-07-01T04:26:03.479Z,16.10
2018-07-01T04:28:31.995Z,16.10
2018-07-01T04:31:00.570Z,16.40
2018-07-01T04:33:29.068Z,16.70
2018-07-01T04:35:57.597Z,17.10
2018-07-01T04:38:26.395Z,17.60
2018-07-01T04:40:54.965Z,18.10
2018-07-01T04:43:23.586Z,18.70
2018-07-01T04:45:52.126Z,19.30
2018-07-01T04:48:20.671Z,19.50
2018-07-01T04:50:49.238Z,18.90
2018-07-01T04:53:17.743Z,18.30
2018-07-01T04:55:46.313Z,17.90
2018-07-01T04:58:14.979Z,17.60
2018-07-01T05:00:43.550Z,17.40
2018-07-01T05:03:12.142Z,17.30
2018-07-01T05:05:40.732Z,17.20
2018-07-01T05:08:09.324Z,17.30
2018-07-01T05:10:37.870Z,17.40
2018-07-01T05:13:06.440Z,17.60
2018-07-01T05:15:35.019Z,17.70
2018-07-01T05:18:03.562Z,17.80
2018-07-01T05:20:32.161Z,18.10
2018-07-01T05:23:00.701Z,18.20
2018-07-01T05:25:29.239Z,18.60
2018-07-01T05:27:57.802Z,19.30
2018-07-01T05:30:26.292Z,20.10
2018-07-01T05:32:55.488Z,20.90
2018-07-01T05:35:24.097Z,21.70
2018-07-01T05:37:52.665Z,22.40
2018-07-01T05:40:21.289Z,23.20
2018-07-01T05:42:49.805Z,23.90
2018-07-01T05:45:18.335Z,24.70
2018-07-01T05:47:46.840Z,25.40
2018-07-01T05:50:15.354Z,25.50
2018-07-01T05:52:43.903Z,25.60
2018-07-01T05:55:12.463Z,25.30
2018-07-01T05:57:41.009Z,24.70
2018-07-01T06:00:09.863Z,24.60
2018-07-01T06:02:38.436Z,25.20
2018-07-01T06:05:07.038Z,25.80
2018-07-01T06:07:35.570Z,26.40
2018-07-01T06:10:04.421Z,26.80
2018-07-01T06:12:32.959Z,27.40
2018-07-01T06:15:01.510Z,27.60
2018-07-01T06:17:30.104Z,27.90
2018-07-01T06:19:58.880Z,28.40
2018-07-01T06:22:27.452Z,28.50
2018-07-01T06:24:55.977Z,28.70
2018-07-01T06:27:24.537Z,28.60
2018-07-01T06:29:53.102Z,29.00
2018-07-01T06:32:21.676Z,28.60
2018-07-01T06:34:50.242Z,28.70
2018-07-01T06:37:18.831Z,28.60
2018-07-01T06:39:47.395Z,28.60
2018-07-01T06:42:15.971Z,28.60
2018-07-01T06:44:44.575Z,28.50
2018-07-01T06:47:14.083Z,28.70
2018-07-01T06:49:42.580Z,29.10
2018-07-01T06:52:11.132Z,28.90
2018-07-01T06:54:39.698Z,28.40
2018-07-01T06:57:08.208Z,28.30
2018-07-01T06:59:36.897Z,28.60
2018-07-01T07:02:05.765Z,28.00
2018-07-01T07:04:34.296Z,27.30
2018-07-01T07:07:03.062Z,26.40
2018-07-01T07:11:59.826Z,26.30
2018-07-01T07:14:28.316Z,26.70
2018-07-01T07:16:56.840Z,26.90
2018-07-01T07:19:25.406Z,27.10
2018-07-01T07:24:22.236Z,27.80
2018-07-01T07:26:50.952Z,28.00
2018-07-01T07:29:19.502Z,28.50
2018-07-01T07:31:48.062Z,28.90
2018-07-01T07:34:16.574Z,29.10
2018-07-01T07:36:45.146Z,29.40
2018-07-01T07:39:13.714Z,30.00
2018-07-01T07:41:42.285Z,30.60
2018-07-01T07:44:10.823Z,30.60
2018-07-01T07:46:39.337Z,30.30
2018-07-01T07:49:07.901Z,30.30
2018-07-01T07:51:36.429Z,30.50
2018-07-01T07:54:05.020Z,30.90
2018-07-01T07:56:33.563Z,31.50
2018-07-01T07:59:02.094Z,31.80
2018-07-01T08:01:30.626Z,32.30
2018-07-01T08:04:05.482Z,32.00
2018-07-01T08:06:34.038Z,31.30
2018-07-01T08:09:02.603Z,30.60
2018-07-01T08:11:31.126Z,29.80
2018-07-01T08:13:59.663Z,29.90
2018-07-01T08:16:28.197Z,30.00
2018-07-01T08:18:56.741Z,30.10
2018-07-01T08:21:25.294Z,30.10
2018-07-01T08:23:53.843Z,30.00
2018-07-01T08:26:23.276Z,29.80
2018-07-01T08:28:52.175Z,29.50
2018-07-01T08:31:20.753Z,29.20
2018-07-01T08:33:49.285Z,28.50
2018-07-01T08:36:18.593Z,28.20
2018-07-01T08:38:47.122Z,28.00
2018-07-01T08:41:15.766Z,27.50
2018-07-01T08:43:44.270Z,27.30
2018-07-01T08:46:13.056Z,27.30
2018-07-01T08:48:41.574Z,27.40
2018-07-01T08:51:10.269Z,27.40
2018-07-01T08:53:38.861Z,27.40
2018-07-01T08:56:07.393Z,27.40
2018-07-01T08:58:36.269Z,27.40
2018-07-01T09:01:04.894Z,27.30
2018-07-01T09:03:33.422Z,27.20
2018-07-01T09:06:01.973Z,27.10
2018-07-01T09:08:30.590Z,27.30
2018-07-01T09:10:59.122Z,27.40
2018-07-01T09:13:27.629Z,27.50
2018-07-01T09:15:56.135Z,27.30
2018-07-01T09:18:24.761Z,27.10
2018-07-01T09:20:53.317Z,27.20
2018-07-01T09:23:21.941Z,27.20
2018-07-01T09:25:50.395Z,27.30
2018-07-01T09:28:18.906Z,27.30
2018-07-01T09:30:47.478Z,27.20
2018-07-01T09:33:16.011Z,27.30
2018-07-01T09:35:44.599Z,27.30
2018-07-01T09:38:13.185Z,27.30
2018-07-01T09:40:41.721Z,27.00
2018-07-01T09:43:10.271Z,27.00
2018-07-01T09:45:38.801Z,27.00
2018-07-01T09:48:07.521Z,27.30
2018-07-01T09:50:36.072Z,27.40
2018-07-01T09:53:04.607Z,27.30
2018-07-01T09:55:33.180Z,27.10
2018-07-01T09:58:01.715Z,26.90
2018-07-01T10:00:30.256Z,26.80
2018-07-01T10:02:58.779Z,27.00
2018-07-01T10:05:28.830Z,27.20
2018-07-01T10:07:57.418Z,27.30
2018-07-01T10:10:25.997Z,27.20
2018-07-01T10:12:54.578Z,27.20
2018-07-01T10:15:23.082Z,27.30
2018-07-01T10:17:51.625Z,27.40
2018-07-01T10:20:21.563Z,27.40
2018-07-01T10:22:50.194Z,27.50
2018-07-01T10:25:18.764Z,27.60
2018-07-01T10:27:47.293Z,27.50
2018-07-01T10:30:16.025Z,27.50
2018-07-01T10:32:44.538Z,27.60
2018-07-01T10:35:13.068Z,27.70
2018-07-01T10:37:41.631Z,27.60
2018-07-01T10:40:19.038Z,27.50
2018-07-01T10:42:47.781Z,27.60
2018-07-01T10:45:16.327Z,27.80
2018-07-01T10:47:44.840Z,27.70
2018-07-01T10:50:13.401Z,27.70
2018-07-01T10:52:41.972Z,27.80
2018-07-01T10:55:10.552Z,27.90
2018-07-01T10:57:39.144Z,28.00
2018-07-01T11:00:07.994Z,28.10
2018-07-01T11:02:36.615Z,28.00
2018-07-01T11:05:05.365Z,27.90
2018-07-01T11:07:33.939Z,28.00
2018-07-01T11:12:30.622Z,28.10
2018-07-01T11:14:59.185Z,28.20
2018-07-01T11:17:27.682Z,28.10
2018-07-01T11:19:56.524Z,28.20
2018-07-01T11:22:26.027Z,28.10
2018-07-01T11:24:54.585Z,28.20
2018-07-01T11:27:24.201Z,28.30
2018-07-01T11:29:52.746Z,28.40
2018-07-01T11:32:21.283Z,28.40
2018-07-01T11:34:49.819Z,28.40
2018-07-01T11:37:18.333Z,28.50
2018-07-01T11:39:47.812Z,28.30
2018-07-01T11:42:16.613Z,28.30
2018-07-01T11:44:45.687Z,28.20
2018-07-01T11:47:14.266Z,28.10
2018-07-01T11:49:42.857Z,27.90
2018-07-01T11:52:11.375Z,28.10
2018-07-01T11:54:39.905Z,28.10
2018-07-01T11:59:40.332Z,27.90
2018-07-01T12:02:09.185Z,27.90
2018-07-01T12:04:37.702Z,28.10
2018-07-01T12:07:06.240Z,28.10
2018-07-01T12:09:34.775Z,28.00
2018-07-01T12:14:31.517Z,28.10
2018-07-01T12:17:00.047Z,28.10
2018-07-01T12:19:29.502Z,28.00
2018-07-01T12:21:58.134Z,28.10
2018-07-01T12:24:26.655Z,28.10
2018-07-01T12:26:55.149Z,28.10
2018-07-01T12:29:23.698Z,28.10
2018-07-01T12:31:52.241Z,27.90
2018-07-01T12:34:20.782Z,27.80
2018-07-01T12:36:49.302Z,28.00
2018-07-01T12:39:17.888Z,28.10
2018-07-01T12:41:47.206Z,28.20
2018-07-01T12:44:16.106Z,28.30
2018-07-01T12:46:45.505Z,28.40
2018-07-01T12:49:14.793Z,28.40
2018-07-01T12:51:45.990Z,28.30
2018-07-01T12:54:14.711Z,28.10
2018-07-01T12:56:43.266Z,28.00
2018-07-01T12:59:11.838Z,27.90
2018-07-01T13:01:41.231Z,27.80
2018-07-01T13:04:09.798Z,27.90
2018-07-01T13:06:38.366Z,28.10
2018-07-01T13:09:11.073Z,28.10
2018-07-01T13:11:39.643Z,28.20
2018-07-01T13:14:08.166Z,28.30
2018-07-01T13:16:36.731Z,28.30
2018-07-01T13:19:05.791Z,28.40
2018-07-01T13:21:36.141Z,28.30
2018-07-01T13:24:04.731Z,28.20
2018-07-01T13:26:33.300Z,28.10
2018-07-01T13:29:01.888Z,28.00
2018-07-01T13:31:30.458Z,28.00
2018-07-01T13:33:59.024Z,28.00
2018-07-01T13:36:27.579Z,28.10
2018-07-01T13:38:56.400Z,28.10
2018-07-01T13:41:24.999Z,28.20
2018-07-01T13:43:53.545Z,28.20
2018-07-01T13:46:22.175Z,28.30
2018-07-01T13:48:50.748Z,28.40
2018-07-01T13:51:19.291Z,28.30
2018-07-01T13:53:47.885Z,28.20
2018-07-01T13:56:16.546Z,28.00
2018-07-01T13:58:45.930Z,28.10
2018-07-01T14:01:14.465Z,28.10
2018-07-01T14:03:43.004Z,28.00
2018-07-01T14:06:11.552Z,28.00
2018-07-01T14:08:41.112Z,28.10
2018-07-01T14:11:09.610Z,28.30
2018-07-01T14:13:38.118Z,28.40
2018-07-01T14:16:06.778Z,28.40
2018-07-01T14:18:35.347Z,28.50
2018-07-01T14:21:03.954Z,28.40
2018-07-01T14:23:33.200Z,28.30
2018-07-01T14:26:01.693Z,28.30
2018-07-01T14:28:30.452Z,28.20
2018-07-01T14:30:59.245Z,28.20
2018-07-01T14:33:27.782Z,28.20
2018-07-01T14:35:56.399Z,28.20
2018-07-01T14:38:25.085Z,28.10
2018-07-01T14:40:53.771Z,28.20
2018-07-01T14:43:22.397Z,28.20
2018-07-01T14:45:50.966Z,28.20
2018-07-01T14:48:19.531Z,28.20
2018-07-01T14:50:48.065Z,28.20
2018-07-01T14:53:16.634Z,28.00
2018-07-01T14:55:45.237Z,27.90
2018-07-01T14:58:14.000Z,27.90
2018-07-01T15:00:42.524Z,28.00
2018-07-01T15:03:11.063Z,28.00
2018-07-01T15:05:39.614Z,28.00
2018-07-01T15:08:08.249Z,28.00
2018-07-01T15:10:36.825Z,28.00
2018-07-01T15:13:05.358Z,28.00
2018-07-01T15:15:33.844Z,27.90
2018-07-01T15:18:02.391Z,27.90
2018-07-01T15:20:30.878Z,28.10
2018-07-01T15:23:00.625Z,28.00
2018-07-01T15:25:29.170Z,27.90
2018-07-01T15:30:25.955Z,27.60
2018-07-01T15:32:54.473Z,27.70
2018-07-01T15:35:23.032Z,27.80
2018-07-01T15:37:51.580Z,27.80
2018-07-01T15:40:20.164Z,27.80
2018-07-01T15:42:48.723Z,27.80
2018-07-01T15:45:17.298Z,27.80
2018-07-01T15:47:45.866Z,27.80
2018-07-01T15:50:14.415Z,27.80
2018-07-01T15:52:42.968Z,27.80
2018-07-01T15:55:11.486Z,27.60
2018-07-01T15:57:40.048Z,27.60
2018-07-01T16:00:08.994Z,27.50
2018-07-01T16:02:37.575Z,27.40
2018-07-01T16:05:06.127Z,27.40
2018-07-01T16:07:34.652Z,27.40
2018-07-01T16:10:03.471Z,27.40
2018-07-01T16:12:31.958Z,27.40
2018-07-01T16:15:00.770Z,27.40
2018-07-01T16:17:29.317Z,27.20
2018-07-01T16:19:57.910Z,27.20
2018-07-01T16:22:26.519Z,27.20
2018-07-01T16:25:00.290Z,27.20
2018-07-01T16:27:34.316Z,27.20
2018-07-01T16:30:04.766Z,27.00
2018-07-01T16:32:34.386Z,27.10
2018-07-01T16:35:03.011Z,27.10
2018-07-01T16:37:32.460Z,27.10
2018-07-01T16:40:01.214Z,27.00
2018-07-01T16:42:29.758Z,27.00
2018-07-01T16:44:58.281Z,27.00
2018-07-01T16:47:26.799Z,26.90
2018-07-01T16:49:55.377Z,26.80
2018-07-01T16:52:23.995Z,26.80
2018-07-01T16:54:52.454Z,26.80
2018-07-01T16:57:20.977Z,26.80
2018-07-01T16:59:49.759Z,26.70
2018-07-01T17:02:18.400Z,26.60
2018-07-01T17:04:46.934Z,26.60
2018-07-01T17:07:15.466Z,26.50
2018-07-01T17:09:44.576Z,26.50
2018-07-01T17:12:13.102Z,26.40
2018-07-01T17:14:41.648Z,26.30
2018-07-01T17:17:10.182Z,26.30
2018-07-01T17:19:38.690Z,26.30
2018-07-01T17:22:07.316Z,26.20
2018-07-01T17:24:35.831Z,26.20
2018-07-01T17:27:04.455Z,26.10
2018-07-01T17:29:33.006Z,26.10
2018-07-01T17:34:09.210Z,26.00
2018-07-01T17:36:37.743Z,25.90
2018-07-01T17:39:09.374Z,25.70
2018-07-01T17:41:38.203Z,25.70
2018-07-01T17:44:06.896Z,25.70
2018-07-01T17:46:35.644Z,25.60
2018-07-01T17:49:04.699Z,25.50
2018-07-01T17:51:33.199Z,25.50
2018-07-01T17:54:01.823Z,25.50
2018-07-01T17:56:30.282Z,25.40
2018-07-01T17:58:58.841Z,25.30
2018-07-01T18:01:27.421Z,25.20
2018-07-01T18:03:55.994Z,25.20
2018-07-01T18:06:24.504Z,25.10
2018-07-01T18:08:52.991Z,25.00
2018-07-01T18:11:21.497Z,25.00
2018-07-01T18:13:56.529Z,24.90
2018-07-01T18:16:33.590Z,24.80
2018-07-01T18:19:02.225Z,24.70
2018-07-01T18:21:33.618Z,24.60
2018-07-01T18:24:27.531Z,24.50
2018-07-01T18:26:29.515Z,24.50
2018-07-01T18:29:08.181Z,24.40
2018-07-01T18:31:26.944Z,24.30
2018-07-01T18:33:56.236Z,24.20
2018-07-01T18:38:58.877Z,24.10
2018-07-01T18:41:28.456Z,24.00
2018-07-01T18:43:57.624Z,23.80
2018-07-01T18:46:27.443Z,23.80
2018-07-01T18:49:00.313Z,23.70
2018-07-01T18:51:30.522Z,23.60
2018-07-01T18:54:00.076Z,23.50
2018-07-01T18:56:34.044Z,23.40
2018-07-01T18:59:05.012Z,23.30
2018-07-01T19:01:46.039Z,23.20
2018-07-01T19:04:17.484Z,23.20
2018-07-01T19:06:47.878Z,23.00
2018-07-01T19:09:17.625Z,22.90
2018-07-01T19:11:47.059Z,22.80
2018-07-01T19:14:17.664Z,22.70
2018-07-01T19:16:53.734Z,22.60
2018-07-01T19:20:10.372Z,22.50
2018-07-01T19:25:07.385Z,22.30
2018-07-01T19:27:36.955Z,22.20
2018-07-01T19:32:33.940Z,21.90
2018-07-01T19:35:02.606Z,21.90
2018-07-01T19:37:31.158Z,21.80
2018-07-01T19:39:59.919Z,21.60
2018-07-01T19:42:28.557Z,21.50
2018-07-01T19:44:57.472Z,21.40
2018-07-01T19:47:26.014Z,21.40
2018-07-01T19:49:54.557Z,21.20
2018-07-01T19:52:23.169Z,21.10
2018-07-01T19:54:51.777Z,21.10
2018-07-01T19:57:20.668Z,21.00
2018-07-01T19:59:49.216Z,20.90
2018-07-01T20:02:17.727Z,20.80
2018-07-01T20:04:46.233Z,20.80
2018-07-01T20:07:14.859Z,20.80
2018-07-01T20:09:58.166Z,20.70
2018-07-01T20:12:26.709Z,20.60
2018-07-01T20:14:56.021Z,20.50
2018-07-01T20:17:24.514Z,20.50
2018-07-01T20:19:53.057Z,20.40
2018-07-01T20:22:22.172Z,20.40
2018-07-01T20:24:50.845Z,20.30
2018-07-01T20:27:19.350Z,20.20
2018-07-01T20:29:47.883Z,20.10
2018-07-01T20:32:16.631Z,20.10
2018-07-01T20:34:45.167Z,20.00
2018-07-01T20:37:13.658Z,19.90
2018-07-01T20:39:42.353Z,19.90
2018-07-01T20:42:12.097Z,19.90
2018-07-01T20:47:10.958Z,19.80
2018-07-01T20:49:40.099Z,19.60
2018-07-01T20:52:08.924Z,19.40
2018-07-01T20:54:37.939Z,19.30
2018-07-01T20:57:06.857Z,19.20
2018-07-01T20:59:35.823Z,19.30
2018-07-01T21:02:04.377Z,19.30
2018-07-01T21:04:33.381Z,19.20
2018-07-01T21:07:01.941Z,19.30
2018-07-01T21:09:30.483Z,19.20
2018-07-01T21:11:59.059Z,19.20
2018-07-01T21:14:27.598Z,19.20
2018-07-01T21:16:56.117Z,19.10
2018-07-01T21:19:25.572Z,19.10
2018-07-01T21:21:54.182Z,19.00
2018-07-01T21:24:22.743Z,19.00
2018-07-01T21:26:51.254Z,18.90
2018-07-01T21:29:19.778Z,18.80
2018-07-01T21:31:48.330Z,18.60
2018-07-01T21:34:16.837Z,18.50
2018-07-01T21:36:45.397Z,18.40
2018-07-01T21:39:13.926Z,18.40
2018-07-01T21:41:42.485Z,18.40
2018-07-01T21:44:11.075Z,18.30
2018-07-01T21:46:39.646Z,18.30
2018-07-01T21:49:08.947Z,18.20
2018-07-01T21:51:37.807Z,18.10
2018-07-01T21:54:06.366Z,18.10
2018-07-01T21:56:34.929Z,18.00
2018-07-01T21:59:03.666Z,18.00
2018-07-01T22:01:32.236Z,17.90
2018-07-01T22:04:00.769Z,17.80
2018-07-01T22:06:34.676Z,17.70
2018-07-01T22:09:03.675Z,17.80
2018-07-01T22:11:44.481Z,17.80
2018-07-01T22:14:21.352Z,17.80
2018-07-01T22:16:49.978Z,17.80
2018-07-01T22:19:19.130Z,17.70
2018-07-01T22:21:48.957Z,17.70
2018-07-01T22:24:17.510Z,17.60
2018-07-01T22:26:46.074Z,17.60
2018-07-01T22:29:15.951Z,17.60
2018-07-01T22:31:44.566Z,17.60
2018-07-01T22:37:13.303Z,17.50
2018-07-01T22:39:41.869Z,17.40
2018-07-01T22:42:10.397Z,17.30
2018-07-01T22:44:38.941Z,17.20
2018-07-01T22:47:07.513Z,17.20
2018-07-01T22:52:04.249Z,17.10
2018-07-01T22:54:32.806Z,17.10
2018-07-01T22:57:01.373Z,17.00
2018-07-01T22:59:29.931Z,17.00
2018-07-01T23:03:17.003Z,16.80
2018-07-01T23:05:45.615Z,16.70
2018-07-01T23:08:14.143Z,16.60
2018-07-01T23:10:42.802Z,16.60
2018-07-01T23:13:11.323Z,16.60
2018-07-01T23:15:39.859Z,16.60
2018-07-01T23:18:08.446Z,16.60
2018-07-01T23:20:36.977Z,16.60
2018-07-01T23:23:05.539Z,16.70
2018-07-01T23:25:34.105Z,16.60
2018-07-01T23:28:02.661Z,16.60
2018-07-01T23:30:31.219Z,16.60
2018-07-01T23:32:59.743Z,16.60
2018-07-01T23:35:28.284Z,16.60
2018-07-01T23:37:56.846Z,16.50
2018-07-01T23:40:25.377Z,16.50
2018-07-01T23:42:53.930Z,16.50
2018-07-01T23:45:22.493Z,16.50
2018-07-01T23:47:51.058Z,16.50
2018-07-01T23:50:19.610Z,16.40
2018-07-01T23:52:48.178Z,16.40
2018-07-01T23:55:16.731Z,16.30
2018-07-01T23:57:45.322Z,16.20
